createdAt,value
2023-05-02T00:00:29.808Z,12.84
2023-05-02T00:01:29.791Z,12.95
2023-05-02T00:02:29.917Z,12.94
2023-05-02T00:03:29.850Z,12.95
2023-05-02T00:04:29.837Z,13.06
2023-05-02T00:05:29.745Z,13.09
2023-05-02T00:06:29.784Z,13.10
2023-05-02T00:07:29.722Z,13.22
2023-05-02T00:08:29.734Z,13.35
2023-05-02T00:09:29.701Z,13.32
2023-05-02T00:10:29.716Z,13.35
2023-05-02T00:12:29.677Z,13.13
2023-05-02T00:13:29.667Z,12.96
2023-05-02T00:14:29.637Z,12.99
2023-05-02T00:15:29.634Z,12.94
2023-05-02T00:16:29.682Z,12.91
2023-05-02T00:17:29.644Z,12.94
2023-05-02T00:18:29.595Z,12.91
2023-05-02T00:19:29.590Z,12.96
2023-05-02T00:20:29.579Z,12.96
2023-05-02T00:21:29.571Z,12.91
2023-05-02T00:22:29.549Z,12.88
2023-05-02T00:23:29.537Z,12.84
2023-05-02T00:24:29.540Z,12.84
2023-05-02T00:25:29.515Z,12.77
2023-05-02T00:26:29.501Z,12.76
2023-05-02T00:27:29.487Z,12.79
2023-05-02T00:28:29.477Z,12.79
2023-05-02T00:29:29.470Z,12.70
2023-05-02T00:30:29.461Z,12.66
2023-05-02T00:31:29.554Z,12.67
2023-05-02T00:32:29.496Z,12.69
2023-05-02T00:33:29.451Z,12.59
2023-05-02T00:34:29.404Z,12.59
2023-05-02T00:35:29.409Z,12.55
2023-05-02T00:36:29.378Z,12.54
2023-05-02T00:37:29.371Z,12.54
2023-05-02T00:38:29.360Z,12.49
2023-05-02T00:39:29.352Z,12.52
2023-05-02T00:40:29.353Z,12.52
2023-05-02T00:41:29.329Z,12.51
2023-05-02T00:42:29.331Z,12.56
2023-05-02T00:43:29.300Z,12.58
2023-05-02T00:44:29.291Z,12.56
2023-05-02T00:45:29.283Z,12.51
2023-05-02T00:46:29.327Z,12.58
2023-05-02T00:47:29.316Z,12.56
2023-05-02T00:48:29.239Z,12.59
2023-05-02T00:49:29.235Z,12.66
2023-05-02T00:50:29.215Z,12.59
2023-05-02T00:51:29.204Z,12.49
2023-05-02T00:52:29.192Z,12.49
2023-05-02T00:53:29.212Z,12.61
2023-05-02T00:54:29.168Z,12.51
2023-05-02T00:55:29.155Z,12.46
2023-05-02T00:56:29.161Z,12.37
2023-05-02T00:57:29.133Z,12.40
2023-05-02T00:58:29.134Z,12.40
2023-05-02T00:59:29.122Z,12.41
2023-05-02T01:00:29.097Z,12.33
2023-05-02T01:01:29.154Z,12.31
2023-05-02T01:02:29.192Z,12.40
2023-05-02T01:03:29.448Z,12.29
2023-05-02T01:04:29.048Z,12.34
2023-05-02T01:05:29.037Z,12.31
2023-05-02T01:06:29.066Z,12.33
2023-05-02T01:07:29.023Z,12.30
2023-05-02T01:08:28.999Z,12.22
2023-05-02T01:09:28.996Z,12.11
2023-05-02T01:10:28.972Z,12.13
2023-05-02T01:11:28.974Z,12.07
2023-05-02T01:12:28.972Z,12.01
2023-05-02T01:13:28.940Z,12.00
2023-05-02T01:14:28.924Z,12.00
2023-05-02T01:15:28.911Z,12.03
2023-05-02T01:16:28.918Z,11.93
2023-05-02T01:17:28.942Z,12.00
2023-05-02T01:18:28.878Z,12.11
2023-05-02T01:19:28.868Z,12.15
2023-05-02T01:20:28.850Z,12.08
2023-05-02T01:21:28.843Z,12.04
2023-05-02T01:22:28.826Z,11.88
2023-05-02T01:23:28.818Z,11.85
2023-05-02T01:24:28.811Z,11.90
2023-05-02T01:25:28.801Z,11.87
2023-05-02T01:26:28.778Z,11.88
2023-05-02T01:27:28.772Z,11.85
2023-05-02T01:28:28.771Z,11.85
2023-05-02T01:29:28.758Z,11.79
2023-05-02T01:30:28.730Z,11.85
2023-05-02T01:31:28.740Z,11.72
2023-05-02T01:32:28.734Z,11.78
2023-05-02T01:33:28.697Z,11.81
2023-05-02T01:34:28.687Z,11.79
2023-05-02T01:35:28.672Z,11.78
2023-05-02T01:36:28.659Z,11.72
2023-05-02T01:37:28.682Z,11.75
2023-05-02T01:38:28.639Z,11.81
2023-05-02T01:39:28.626Z,11.74
2023-05-02T01:40:28.610Z,11.81
2023-05-02T01:41:28.602Z,11.78
2023-05-02T01:42:28.602Z,11.85
2023-05-02T01:43:28.576Z,11.82
2023-05-02T01:44:28.602Z,11.85
2023-05-02T01:45:28.555Z,11.84
2023-05-02T01:46:28.598Z,11.90
2023-05-02T01:47:28.558Z,11.88
2023-05-02T01:48:28.518Z,11.82
2023-05-02T01:49:28.507Z,11.94
2023-05-02T01:50:28.499Z,11.87
2023-05-02T01:51:28.483Z,11.94
2023-05-02T01:52:28.469Z,11.90
2023-05-02T01:53:28.464Z,11.87
2023-05-02T01:54:28.446Z,11.82
2023-05-02T01:55:28.438Z,11.84
2023-05-02T01:56:28.417Z,11.87
2023-05-02T01:57:28.415Z,11.93
2023-05-02T01:58:28.408Z,11.87
2023-05-02T01:59:28.386Z,11.90
2023-05-02T02:00:28.481Z,12.01
2023-05-02T02:02:28.354Z,11.90
2023-05-02T02:03:28.376Z,11.88
2023-05-02T02:04:28.357Z,11.90
2023-05-02T02:05:28.333Z,11.82
2023-05-02T02:06:28.352Z,11.98
2023-05-02T02:07:28.295Z,11.85
2023-05-02T02:08:28.283Z,11.81
2023-05-02T02:09:28.262Z,11.85
2023-05-02T02:10:28.266Z,11.94
2023-05-02T02:11:28.245Z,11.90
2023-05-02T02:12:28.230Z,12.05
2023-05-02T02:13:28.215Z,11.90
2023-05-02T02:14:28.207Z,12.00
2023-05-02T02:15:28.195Z,12.03
2023-05-02T02:16:28.214Z,11.88
2023-05-02T02:17:28.227Z,11.88
2023-05-02T02:18:28.157Z,11.84
2023-05-02T02:19:28.153Z,11.98
2023-05-02T02:20:28.136Z,11.88
2023-05-02T02:21:28.119Z,11.88
2023-05-02T02:22:28.107Z,11.88
2023-05-02T02:23:28.102Z,11.87
2023-05-02T02:24:28.085Z,12.03
2023-05-02T02:25:28.092Z,12.04
2023-05-02T02:26:28.062Z,12.01
2023-05-02T02:27:28.049Z,12.04
2023-05-02T02:28:28.039Z,11.96
2023-05-02T02:29:28.021Z,12.16
2023-05-02T02:30:28.012Z,12.19
2023-05-02T02:31:28.106Z,12.21
2023-05-02T02:32:28.696Z,12.23
2023-05-02T02:33:27.978Z,12.22
2023-05-02T02:34:27.982Z,12.23
2023-05-02T02:35:27.952Z,12.15
2023-05-02T02:36:27.936Z,12.21
2023-05-02T02:37:27.928Z,12.08
2023-05-02T02:38:27.913Z,12.16
2023-05-02T02:39:27.910Z,12.13
2023-05-02T02:40:27.897Z,12.18
2023-05-02T02:41:27.881Z,12.13
2023-05-02T02:42:27.866Z,12.15
2023-05-02T02:43:27.858Z,12.13
2023-05-02T02:44:27.845Z,12.21
2023-05-02T02:45:27.840Z,12.25
2023-05-02T02:46:27.852Z,12.19
2023-05-02T02:47:27.883Z,12.05
2023-05-02T02:48:27.808Z,12.08
2023-05-02T02:49:27.785Z,12.16
2023-05-02T02:50:27.767Z,12.08
2023-05-02T02:51:27.759Z,12.15
2023-05-02T02:52:27.749Z,12.07
2023-05-02T02:53:27.735Z,12.12
2023-05-02T02:54:27.724Z,12.07
2023-05-02T02:55:27.711Z,12.05
2023-05-02T02:56:27.700Z,12.04
2023-05-02T02:57:27.695Z,12.00
2023-05-02T02:58:27.674Z,12.01
2023-05-02T02:59:27.666Z,12.05
2023-05-02T03:00:27.645Z,12.08
2023-05-02T03:01:27.684Z,12.11
2023-05-02T03:02:27.695Z,12.16
2023-05-02T03:03:27.636Z,12.11
2023-05-02T03:04:27.618Z,12.11
2023-05-02T03:05:27.595Z,12.15
2023-05-02T03:06:27.612Z,12.12
2023-05-02T03:07:27.574Z,12.12
2023-05-02T03:08:27.552Z,12.13
2023-05-02T03:09:27.545Z,12.12
2023-05-02T03:10:27.534Z,12.07
2023-05-02T03:11:28.981Z,12.13
2023-05-02T03:12:27.501Z,12.19
2023-05-02T03:13:27.502Z,12.11
2023-05-02T03:14:27.482Z,12.18
2023-05-02T03:15:27.469Z,12.18
2023-05-02T03:16:27.580Z,12.07
2023-05-02T03:17:27.480Z,12.13
2023-05-02T03:18:27.430Z,12.25
2023-05-02T03:19:27.421Z,12.19
2023-05-02T03:20:27.432Z,12.15
2023-05-02T03:21:27.398Z,12.22
2023-05-02T03:22:27.384Z,12.33
2023-05-02T03:23:27.382Z,12.18
2023-05-02T03:24:27.366Z,12.12
2023-05-02T03:25:27.354Z,12.13
2023-05-02T03:26:27.337Z,12.16
2023-05-02T03:27:27.328Z,12.08
2023-05-02T03:28:27.312Z,12.13
2023-05-02T03:29:27.305Z,12.19
2023-05-02T03:30:27.292Z,12.23
2023-05-02T03:31:27.297Z,12.19
2023-05-02T03:32:27.283Z,12.21
2023-05-02T03:33:27.259Z,12.11
2023-05-02T03:34:27.246Z,12.16
2023-05-02T03:35:27.240Z,12.19
2023-05-02T03:36:27.235Z,12.11
2023-05-02T03:37:27.210Z,12.15
2023-05-02T03:38:27.193Z,12.07
2023-05-02T03:39:27.185Z,12.19
2023-05-02T03:40:27.166Z,12.21
2023-05-02T03:41:27.168Z,12.16
2023-05-02T03:42:27.144Z,12.13
2023-05-02T03:43:27.136Z,12.08
2023-05-02T03:44:27.122Z,12.13
2023-05-02T03:45:27.111Z,12.11
2023-05-02T03:46:27.137Z,12.11
2023-05-02T03:47:27.121Z,12.13
2023-05-02T03:48:27.075Z,12.15
2023-05-02T03:49:27.111Z,12.13
2023-05-02T03:50:27.049Z,12.13
2023-05-02T03:51:27.040Z,12.07
2023-05-02T03:52:27.052Z,12.22
2023-05-02T03:53:27.017Z,12.22
2023-05-02T03:54:27.023Z,12.19
2023-05-02T03:55:26.993Z,12.13
2023-05-02T03:56:26.980Z,12.13
2023-05-02T03:57:26.969Z,12.13
2023-05-02T03:58:26.954Z,12.19
2023-05-02T03:59:26.945Z,12.19
2023-05-02T04:00:26.930Z,12.18
2023-05-02T04:01:26.930Z,12.21
2023-05-02T04:02:27.057Z,12.21
2023-05-02T04:03:29.310Z,12.13
2023-05-02T04:04:26.904Z,12.15
2023-05-02T04:05:26.876Z,12.26
2023-05-02T04:06:26.895Z,12.36
2023-05-02T04:07:26.852Z,12.26
2023-05-02T04:08:26.854Z,12.37
2023-05-02T04:09:26.828Z,12.26
2023-05-02T04:10:26.812Z,12.29
2023-05-02T04:11:26.814Z,12.31
2023-05-02T04:12:26.791Z,12.31
2023-05-02T04:13:26.780Z,12.29
2023-05-02T04:14:26.771Z,12.22
2023-05-02T04:15:26.755Z,12.19
2023-05-02T04:16:26.762Z,12.21
2023-05-02T04:17:26.840Z,12.29
2023-05-02T04:18:26.716Z,12.29
2023-05-02T04:19:26.712Z,12.15
2023-05-02T04:20:26.702Z,12.21
2023-05-02T04:21:26.896Z,12.19
2023-05-02T04:22:26.671Z,12.21
2023-05-02T04:23:26.659Z,12.08
2023-05-02T04:24:26.671Z,12.25
2023-05-02T04:25:26.838Z,12.21
2023-05-02T04:26:26.621Z,12.25
2023-05-02T04:27:26.613Z,12.33
2023-05-02T04:28:26.617Z,12.31
2023-05-02T04:29:26.588Z,12.22
2023-05-02T04:30:26.572Z,12.31
2023-05-02T04:31:26.745Z,12.19
2023-05-02T04:32:26.597Z,12.29
2023-05-02T04:33:26.540Z,12.25
2023-05-02T04:34:26.521Z,12.21
2023-05-02T04:35:26.526Z,12.08
2023-05-02T04:36:26.501Z,12.05
2023-05-02T04:37:26.492Z,12.12
2023-05-02T04:38:26.477Z,12.21
2023-05-02T04:39:26.469Z,12.08
2023-05-02T04:40:26.470Z,12.26
2023-05-02T04:41:26.441Z,12.25
2023-05-02T04:42:26.429Z,12.23
2023-05-02T04:43:26.420Z,12.19
2023-05-02T04:44:26.411Z,12.22
2023-05-02T04:45:26.394Z,12.33
2023-05-02T04:46:26.434Z,12.26
2023-05-02T04:47:26.398Z,12.29
2023-05-02T04:48:26.354Z,12.40
2023-05-02T04:49:26.347Z,12.37
2023-05-02T04:50:26.330Z,12.38
2023-05-02T04:51:26.324Z,12.41
2023-05-02T04:52:26.339Z,12.55
2023-05-02T04:53:26.307Z,12.54
2023-05-02T04:54:26.284Z,12.52
2023-05-02T04:55:26.306Z,12.62
2023-05-02T04:56:26.289Z,12.58
2023-05-02T04:57:26.255Z,12.61
2023-05-02T04:58:26.241Z,12.63
2023-05-02T04:59:26.226Z,12.66
2023-05-02T05:00:26.210Z,12.67
2023-05-02T05:01:26.241Z,12.70
2023-05-02T05:02:26.348Z,12.69
2023-05-02T05:03:26.255Z,12.73
2023-05-02T05:04:26.164Z,12.73
2023-05-02T05:05:26.200Z,12.69
2023-05-02T05:06:26.156Z,12.67
2023-05-02T05:07:26.131Z,12.77
2023-05-02T05:08:26.119Z,12.73
2023-05-02T05:09:26.117Z,12.69
2023-05-02T05:10:26.110Z,12.71
2023-05-02T05:11:26.088Z,12.71
2023-05-02T05:12:26.093Z,12.67
2023-05-02T05:13:26.071Z,12.70
2023-05-02T05:14:26.050Z,12.67
2023-05-02T05:15:26.043Z,12.76
2023-05-02T05:16:26.057Z,12.71
2023-05-02T05:17:26.103Z,12.70
2023-05-02T05:18:26.018Z,12.77
2023-05-02T05:19:26.017Z,12.95
2023-05-02T05:20:25.978Z,12.96
2023-05-02T05:21:25.967Z,12.96
2023-05-02T05:22:25.956Z,12.99
2023-05-02T05:23:25.946Z,13.06
2023-05-02T05:24:25.938Z,13.07
2023-05-02T05:25:25.924Z,13.03
2023-05-02T05:26:25.910Z,13.04
2023-05-02T05:27:25.898Z,13.06
2023-05-02T05:28:25.901Z,13.06
2023-05-02T05:29:25.873Z,13.07
2023-05-02T05:30:25.860Z,13.17
2023-05-02T05:31:25.869Z,13.17
2023-05-02T05:32:25.870Z,13.21
2023-05-02T05:34:25.819Z,13.25
2023-05-02T05:35:25.803Z,13.24
2023-05-02T05:36:25.792Z,13.27
2023-05-02T05:37:25.780Z,13.35
2023-05-02T05:38:25.771Z,13.31
2023-05-02T05:39:25.754Z,13.32
2023-05-02T05:40:25.748Z,13.35
2023-05-02T05:41:25.729Z,13.31
2023-05-02T05:42:25.720Z,13.22
2023-05-02T05:43:25.706Z,13.38
2023-05-02T05:44:25.717Z,13.39
2023-05-02T05:45:25.681Z,13.27
2023-05-02T05:46:25.698Z,13.31
2023-05-02T05:47:25.805Z,13.35
2023-05-02T05:48:25.709Z,13.28
2023-05-02T05:49:25.635Z,13.24
2023-05-02T05:50:25.632Z,13.25
2023-05-02T05:51:25.611Z,13.31
2023-05-02T05:52:25.601Z,13.28
2023-05-02T05:53:25.593Z,13.36
2023-05-02T05:54:25.583Z,13.35
2023-05-02T05:55:25.566Z,13.27
2023-05-02T05:56:25.565Z,13.36
2023-05-02T05:57:25.544Z,13.39
2023-05-02T05:58:25.534Z,13.53
2023-05-02T05:59:25.523Z,13.62
2023-05-02T06:00:25.586Z,13.62
2023-05-02T06:01:25.496Z,13.62
2023-05-02T06:02:25.612Z,13.73
2023-05-02T06:03:25.563Z,13.71
2023-05-02T06:04:25.476Z,13.69
2023-05-02T06:05:25.456Z,13.71
2023-05-02T06:06:25.483Z,13.76
2023-05-02T06:07:25.474Z,13.80
2023-05-02T06:08:25.422Z,13.79
2023-05-02T06:09:25.407Z,13.79
2023-05-02T06:10:25.402Z,13.90
2023-05-02T06:11:25.385Z,13.91
2023-05-02T06:12:25.375Z,13.90
2023-05-02T06:13:25.381Z,13.86
2023-05-02T06:14:25.357Z,13.96
2023-05-02T06:15:25.337Z,14.02
2023-05-02T06:16:25.440Z,14.05
2023-05-02T06:17:25.361Z,14.11
2023-05-02T06:18:25.309Z,14.23
2023-05-02T06:19:25.303Z,14.34
2023-05-02T06:20:25.292Z,14.44
2023-05-02T06:21:25.276Z,14.52
2023-05-02T06:22:25.267Z,14.69
2023-05-02T06:23:25.247Z,14.75
2023-05-02T06:24:25.250Z,14.80
2023-05-02T06:25:25.229Z,14.95
2023-05-02T06:26:25.227Z,15.07
2023-05-02T06:27:25.205Z,15.12
2023-05-02T06:28:25.398Z,15.27
2023-05-02T06:29:25.179Z,15.37
2023-05-02T06:30:25.186Z,15.51
2023-05-02T06:31:25.183Z,15.48
2023-05-02T06:32:25.270Z,15.51
2023-05-02T06:33:25.139Z,15.56
2023-05-02T06:34:25.144Z,15.44
2023-05-02T06:35:25.117Z,15.56
2023-05-02T06:36:25.109Z,15.48
2023-05-02T06:37:25.096Z,15.33
2023-05-02T06:38:25.088Z,15.33
2023-05-02T06:39:25.075Z,15.40
2023-05-02T06:40:25.072Z,15.25
2023-05-02T06:41:25.053Z,15.34
2023-05-02T06:42:25.065Z,15.35
2023-05-02T06:43:25.039Z,15.22
2023-05-02T06:44:25.040Z,15.27
2023-05-02T06:45:25.014Z,15.31
2023-05-02T06:46:25.103Z,15.28
2023-05-02T06:47:25.057Z,15.34
2023-05-02T06:48:25.019Z,15.37
2023-05-02T06:49:24.973Z,15.38
2023-05-02T06:50:24.961Z,15.46
2023-05-02T06:51:24.962Z,15.40
2023-05-02T06:52:24.942Z,15.28
2023-05-02T06:53:24.936Z,15.13
2023-05-02T06:54:24.918Z,15.19
2023-05-02T06:55:24.910Z,15.27
2023-05-02T06:56:24.898Z,15.19
2023-05-02T06:57:24.892Z,15.25
2023-05-02T06:58:24.878Z,15.27
2023-05-02T06:59:24.870Z,15.33
2023-05-02T07:00:24.862Z,15.28
2023-05-02T07:01:24.863Z,15.25
2023-05-02T07:02:24.864Z,15.25
2023-05-02T07:03:24.832Z,15.15
2023-05-02T07:04:25.036Z,15.16
2023-05-02T07:05:24.808Z,15.13
2023-05-02T07:06:24.847Z,15.03
2023-05-02T07:07:24.789Z,15.04
2023-05-02T07:08:24.783Z,15.00
2023-05-02T07:09:24.792Z,14.98
2023-05-02T07:10:24.777Z,15.07
2023-05-02T07:11:24.753Z,14.97
2023-05-02T07:12:24.742Z,14.82
2023-05-02T07:13:24.727Z,14.61
2023-05-02T07:14:24.715Z,14.48
2023-05-02T07:15:24.706Z,14.56
2023-05-02T07:16:24.728Z,14.52
2023-05-02T07:17:24.759Z,14.57
2023-05-02T07:18:24.671Z,14.69
2023-05-02T07:19:24.830Z,14.91
2023-05-02T07:20:24.675Z,15.15
2023-05-02T07:21:24.649Z,15.18
2023-05-02T07:22:24.630Z,15.38
2023-05-02T07:23:24.623Z,15.59
2023-05-02T07:24:24.609Z,15.67
2023-05-02T07:25:24.610Z,15.80
2023-05-02T07:26:24.586Z,15.95
2023-05-02T07:27:24.580Z,16.08
2023-05-02T07:28:24.580Z,16.22
2023-05-02T07:29:24.567Z,16.40
2023-05-02T07:30:24.565Z,16.47
2023-05-02T07:31:24.551Z,16.52
2023-05-02T07:32:24.603Z,16.77
2023-05-02T07:33:24.579Z,16.72
2023-05-02T07:34:24.509Z,16.87
2023-05-02T07:36:24.519Z,17.17
2023-05-02T07:37:24.482Z,17.25
2023-05-02T07:38:24.477Z,17.51
2023-05-02T07:39:24.476Z,17.27
2023-05-02T07:40:24.521Z,17.15
2023-05-02T07:41:24.457Z,16.87
2023-05-02T07:42:24.437Z,16.65
2023-05-02T07:43:24.421Z,16.66
2023-05-02T07:45:24.415Z,16.92
2023-05-02T07:46:24.438Z,17.07
2023-05-02T07:47:24.471Z,17.30
2023-05-02T07:48:26.203Z,17.28
2023-05-02T07:49:24.386Z,17.35
2023-05-02T07:50:24.431Z,17.40
2023-05-02T07:51:24.355Z,17.47
2023-05-02T07:52:24.417Z,17.65
2023-05-02T07:53:24.341Z,17.80
2023-05-02T07:54:24.330Z,17.95
2023-05-02T07:55:24.333Z,17.99
2023-05-02T07:56:24.314Z,18.14
2023-05-02T07:57:24.322Z,18.25
2023-05-02T07:58:24.291Z,18.34
2023-05-02T07:59:24.287Z,18.38
2023-05-02T08:00:24.501Z,18.50
2023-05-02T08:01:24.271Z,18.59
2023-05-02T08:02:24.385Z,18.79
2023-05-02T08:03:24.404Z,18.87
2023-05-02T08:04:24.419Z,18.87
2023-05-02T08:05:24.238Z,18.90
2023-05-02T08:06:24.299Z,18.74
2023-05-02T08:07:24.220Z,18.84
2023-05-02T08:08:24.231Z,18.97
2023-05-02T08:09:24.210Z,18.94
2023-05-02T08:10:24.260Z,19.01
2023-05-02T08:11:24.186Z,19.02
2023-05-02T08:13:24.177Z,19.12
2023-05-02T08:14:24.175Z,19.09
2023-05-02T08:15:24.158Z,18.99
2023-05-02T08:16:24.164Z,19.02
2023-05-02T08:17:24.224Z,18.96
2023-05-02T08:18:24.137Z,18.96
2023-05-02T08:19:24.148Z,18.78
2023-05-02T08:20:24.121Z,18.97
2023-05-02T08:21:24.112Z,18.90
2023-05-02T08:22:24.110Z,18.64
2023-05-02T08:23:24.098Z,18.51
2023-05-02T08:24:24.108Z,18.50
2023-05-02T08:25:24.086Z,18.49
2023-05-02T08:26:24.077Z,18.44
2023-05-02T08:27:24.068Z,18.60
2023-05-02T08:28:24.064Z,18.53
2023-05-02T08:29:24.062Z,18.49
2023-05-02T08:30:24.065Z,18.46
2023-05-02T08:31:24.069Z,18.51
2023-05-02T08:32:24.032Z,18.47
2023-05-02T08:33:24.070Z,18.46
2023-05-02T08:34:24.017Z,18.51
2023-05-02T08:35:24.018Z,18.60
2023-05-02T08:36:24.001Z,18.72
2023-05-02T08:37:23.988Z,18.84
2023-05-02T08:38:23.992Z,18.94
2023-05-02T08:39:23.977Z,19.05
2023-05-02T08:40:34.099Z,19.24
2023-05-02T08:41:23.972Z,19.31
2023-05-02T08:42:23.959Z,19.47
2023-05-02T08:43:23.946Z,19.65
2023-05-02T08:44:23.944Z,19.71
2023-05-02T08:45:23.930Z,19.78
2023-05-02T08:46:24.021Z,19.79
2023-05-02T08:47:24.038Z,19.76
2023-05-02T08:48:23.910Z,19.78
2023-05-02T08:49:23.900Z,19.80
2023-05-02T08:50:23.892Z,19.78
2023-05-02T08:51:23.891Z,19.72
2023-05-02T08:52:23.885Z,19.75
2023-05-02T08:53:23.872Z,19.67
2023-05-02T08:54:23.865Z,19.71
2023-05-02T08:55:23.858Z,19.75
2023-05-02T08:56:23.881Z,19.89
2023-05-02T08:57:23.843Z,19.89
2023-05-02T08:58:23.837Z,19.87
2023-05-02T08:59:23.826Z,19.87
2023-05-02T09:00:23.829Z,19.82
2023-05-02T09:01:23.901Z,19.92
2023-05-02T09:02:23.889Z,19.90
2023-05-02T09:03:23.989Z,19.94
2023-05-02T09:04:23.846Z,20.04
2023-05-02T09:05:23.791Z,20.12
2023-05-02T09:06:23.815Z,20.17
2023-05-02T09:07:23.778Z,20.27
2023-05-02T09:08:23.790Z,20.20
2023-05-02T09:09:23.760Z,20.12
2023-05-02T09:10:23.771Z,20.15
2023-05-02T09:11:23.748Z,20.33
2023-05-02T09:12:23.761Z,20.38
2023-05-02T09:13:23.745Z,20.54
2023-05-02T09:14:23.740Z,20.48
2023-05-02T09:15:23.723Z,20.50
2023-05-02T09:16:23.823Z,20.63
2023-05-02T09:17:23.848Z,20.66
2023-05-02T09:18:23.706Z,20.66
2023-05-02T09:19:23.696Z,20.66
2023-05-02T09:20:23.692Z,20.76
2023-05-02T09:21:23.683Z,20.88
2023-05-02T09:22:23.682Z,20.94
2023-05-02T09:23:23.670Z,21.08
2023-05-02T09:24:23.667Z,21.13
2023-05-02T09:25:23.657Z,21.18
2023-05-02T09:26:23.690Z,21.33
2023-05-02T09:27:23.646Z,21.45
2023-05-02T09:28:23.663Z,21.56
2023-05-02T09:29:23.656Z,21.75
2023-05-02T09:30:23.641Z,21.61
2023-05-02T09:32:23.691Z,21.73
2023-05-02T09:33:23.613Z,21.77
2023-05-02T09:34:23.662Z,21.66
2023-05-02T09:35:23.649Z,21.31
2023-05-02T09:36:23.600Z,21.30
2023-05-02T09:37:23.592Z,21.12
2023-05-02T09:38:23.587Z,20.90
2023-05-02T09:39:25.548Z,20.68
2023-05-02T09:40:23.582Z,20.61
2023-05-02T09:41:23.574Z,20.38
2023-05-02T09:42:23.570Z,20.19
2023-05-02T09:43:23.560Z,20.01
2023-05-02T09:44:23.572Z,19.80
2023-05-02T09:45:23.564Z,19.65
2023-05-02T09:46:23.591Z,19.32
2023-05-02T09:47:23.565Z,19.25
2023-05-02T09:48:23.541Z,19.06
2023-05-02T09:49:23.536Z,19.10
2023-05-02T09:50:23.535Z,19.05
2023-05-02T09:51:23.508Z,18.90
2023-05-02T09:52:23.514Z,18.83
2023-05-02T09:53:23.499Z,18.87
2023-05-02T09:54:23.499Z,18.96
2023-05-02T09:55:23.487Z,19.02
2023-05-02T09:56:24.848Z,19.07
2023-05-02T09:57:23.487Z,18.93
2023-05-02T09:58:23.477Z,18.99
2023-05-02T09:59:23.460Z,18.94
2023-05-02T10:00:23.479Z,19.05
2023-05-02T10:01:23.458Z,19.05
2023-05-02T10:02:23.479Z,19.13
2023-05-02T10:03:23.567Z,19.09
2023-05-02T10:04:23.489Z,19.06
2023-05-02T10:05:23.419Z,19.05
2023-05-02T10:06:23.446Z,19.07
2023-05-02T10:07:23.405Z,19.05
2023-05-02T10:08:23.402Z,19.06
2023-05-02T10:09:23.398Z,19.10
2023-05-02T10:10:23.387Z,18.96
2023-05-02T10:11:23.377Z,18.97
2023-05-02T10:12:23.375Z,19.05
2023-05-02T10:13:23.363Z,19.05
2023-05-02T10:14:23.397Z,19.05
2023-05-02T10:15:23.355Z,18.87
2023-05-02T10:16:23.471Z,18.99
2023-05-02T10:17:23.347Z,18.96
2023-05-02T10:18:23.331Z,18.84
2023-05-02T10:19:23.330Z,18.79
2023-05-02T10:20:23.315Z,18.79
2023-05-02T10:21:23.310Z,18.75
2023-05-02T10:22:23.310Z,18.66
2023-05-02T10:23:23.292Z,18.60
2023-05-02T10:24:23.289Z,18.60
2023-05-02T10:25:23.285Z,18.62
2023-05-02T10:26:23.277Z,18.65
2023-05-02T10:27:23.267Z,18.71
2023-05-02T10:28:23.258Z,18.79
2023-05-02T10:29:23.249Z,18.89
2023-05-02T10:30:23.240Z,19.05
2023-05-02T10:31:23.296Z,19.09
2023-05-02T10:32:23.320Z,19.05
2023-05-02T10:33:23.217Z,19.15
2023-05-02T10:34:23.212Z,19.28
2023-05-02T10:35:23.223Z,19.68
2023-05-02T10:36:23.205Z,19.86
2023-05-02T10:37:23.394Z,20.07
2023-05-02T10:38:24.645Z,20.40
2023-05-02T10:39:23.172Z,20.72
2023-05-02T10:40:23.176Z,20.90
2023-05-02T10:41:23.159Z,20.94
2023-05-02T10:42:23.155Z,20.98
2023-05-02T10:43:23.148Z,21.21
2023-05-02T10:44:23.142Z,21.33
2023-05-02T10:45:23.132Z,21.18
2023-05-02T10:46:23.133Z,21.24
2023-05-02T10:47:23.185Z,21.37
2023-05-02T10:48:23.162Z,21.31
2023-05-02T10:49:23.107Z,21.52
2023-05-02T10:50:23.101Z,21.43
2023-05-02T10:51:23.095Z,21.48
2023-05-02T10:52:23.091Z,21.38
2023-05-02T10:53:23.083Z,21.40
2023-05-02T10:54:23.083Z,21.40
2023-05-02T10:55:23.071Z,21.38
2023-05-02T10:56:23.066Z,21.21
2023-05-02T10:57:23.063Z,21.26
2023-05-02T10:58:23.063Z,21.24
2023-05-02T10:59:23.248Z,21.08
2023-05-02T11:00:23.046Z,20.94
2023-05-02T11:01:23.097Z,20.83
2023-05-02T11:02:23.176Z,20.48
2023-05-02T11:03:23.041Z,20.41
2023-05-02T11:04:23.040Z,20.31
2023-05-02T11:05:23.014Z,20.35
2023-05-02T11:06:23.052Z,20.31
2023-05-02T11:07:23.001Z,20.16
2023-05-02T11:08:23.466Z,20.07
2023-05-02T11:09:23.005Z,19.94
2023-05-02T11:10:22.980Z,19.76
2023-05-02T11:11:22.980Z,19.60
2023-05-02T11:12:22.969Z,19.43
2023-05-02T11:13:22.969Z,19.31
2023-05-02T11:14:22.959Z,19.12
2023-05-02T11:15:22.979Z,19.09
2023-05-02T11:16:22.973Z,19.07
2023-05-02T11:17:22.949Z,19.16
2023-05-02T11:18:22.931Z,18.90
2023-05-02T11:19:22.931Z,18.83
2023-05-02T11:20:22.940Z,18.72
2023-05-02T11:21:22.915Z,18.74
2023-05-02T11:22:22.907Z,18.69
2023-05-02T11:23:22.935Z,18.66
2023-05-02T11:24:22.894Z,18.76
2023-05-02T11:25:22.889Z,18.82
2023-05-02T11:26:22.878Z,18.82
2023-05-02T11:27:22.875Z,18.79
2023-05-02T11:28:22.876Z,18.68
2023-05-02T11:29:22.877Z,18.57
2023-05-02T11:30:22.853Z,18.60
2023-05-02T11:31:22.935Z,18.64
2023-05-02T11:32:23.085Z,18.60
2023-05-02T11:33:22.853Z,18.69
2023-05-02T11:34:22.832Z,18.74
2023-05-02T11:35:22.828Z,18.78
2023-05-02T11:36:22.830Z,18.97
2023-05-02T11:37:22.809Z,18.97
2023-05-02T11:38:22.793Z,19.09
2023-05-02T11:39:22.820Z,19.27
2023-05-02T11:40:22.780Z,19.38
2023-05-02T11:41:22.786Z,19.58
2023-05-02T11:42:22.767Z,19.70
2023-05-02T11:43:22.758Z,19.82
2023-05-02T11:44:22.748Z,19.94
2023-05-02T11:45:22.747Z,20.13
2023-05-02T11:46:22.930Z,20.38
2023-05-02T11:47:22.744Z,20.61
2023-05-02T11:48:22.729Z,20.71
2023-05-02T11:49:22.728Z,20.46
2023-05-02T11:50:22.713Z,20.48
2023-05-02T11:51:22.707Z,20.38
2023-05-02T11:52:22.720Z,20.34
2023-05-02T11:53:22.698Z,20.17
2023-05-02T11:54:22.693Z,20.17
2023-05-02T11:55:22.689Z,20.01
2023-05-02T11:56:22.675Z,20.10
2023-05-02T11:57:22.666Z,19.94
2023-05-02T11:58:22.696Z,19.87
2023-05-02T11:59:22.670Z,19.75
2023-05-02T12:00:22.645Z,19.62
2023-05-02T12:01:22.643Z,19.49
2023-05-02T12:02:22.754Z,19.31
2023-05-02T12:03:22.966Z,18.99
2023-05-02T12:04:22.627Z,18.79
2023-05-02T12:05:22.665Z,18.68
2023-05-02T12:06:22.761Z,18.49
2023-05-02T12:07:22.614Z,18.39
2023-05-02T12:08:22.653Z,18.38
2023-05-02T12:09:22.613Z,18.14
2023-05-02T12:10:22.573Z,17.80
2023-05-02T12:11:22.574Z,17.53
2023-05-02T12:12:22.565Z,17.35
2023-05-02T12:13:22.563Z,17.12
2023-05-02T12:14:22.748Z,16.95
2023-05-02T12:15:22.547Z,16.81
2023-05-02T12:16:22.572Z,16.77
2023-05-02T12:17:22.572Z,16.73
2023-05-02T12:18:22.541Z,16.78
2023-05-02T12:19:22.519Z,16.70
2023-05-02T12:20:22.503Z,16.54
2023-05-02T12:21:22.496Z,16.59
2023-05-02T12:22:22.497Z,16.54
2023-05-02T12:23:22.479Z,16.55
2023-05-02T12:24:22.578Z,16.63
2023-05-02T12:25:22.461Z,16.67
2023-05-02T12:26:22.606Z,16.82
2023-05-02T12:27:22.446Z,16.91
2023-05-02T12:28:22.444Z,17.18
2023-05-02T12:29:22.447Z,17.39
2023-05-02T12:30:22.419Z,17.46
2023-05-02T12:31:22.521Z,17.70
2023-05-02T12:32:22.435Z,17.65
2023-05-02T12:33:22.405Z,17.96
2023-05-02T12:34:22.382Z,18.25
2023-05-02T12:35:22.373Z,18.35
2023-05-02T12:36:22.372Z,18.47
2023-05-02T12:37:22.359Z,18.62
2023-05-02T12:38:22.346Z,18.93
2023-05-02T12:39:22.340Z,19.01
2023-05-02T12:40:22.374Z,19.17
2023-05-02T12:41:22.324Z,19.28
2023-05-02T12:42:22.312Z,19.28
2023-05-02T12:43:22.366Z,19.17
2023-05-02T12:44:22.297Z,19.15
2023-05-02T12:45:22.298Z,19.09
2023-05-02T12:46:22.290Z,18.97
2023-05-02T12:47:22.520Z,19.05
2023-05-02T12:48:22.264Z,18.99
2023-05-02T12:49:22.264Z,19.05
2023-05-02T12:50:22.251Z,19.07
2023-05-02T12:51:22.246Z,19.09
2023-05-02T12:52:22.238Z,19.01
2023-05-02T12:53:22.232Z,19.10
2023-05-02T12:54:22.218Z,19.05
2023-05-02T12:55:22.218Z,19.02
2023-05-02T12:56:22.240Z,18.91
2023-05-02T12:57:22.201Z,18.90
2023-05-02T12:58:22.197Z,18.89
2023-05-02T12:59:22.193Z,18.97